Heart Butte, Montana
Current Conditions -  °F | °C
As of 11:56 PM on Sunday 21 Dec 2014 (Local Time) from KCTB Reporting Station
Clear Clear  
Wind Chill: 22°   Ceiling: Unl
Heat Index: 31°   Visibility: 10mi
Dew Point: 22°   Wind: 12mph
Humidity: 69%   Direction: 280°W
Pressure: 29.68"   Gusts: NA
Location:  48.29°N, 112.83°W
Report Text: KCTB 220656Z AUTO 28010KT 10SM CLR M01/M06 A2968 RMK AO2 SLP069 T10061056 400671011
Loading
Personal Weather Stations






























Interactive Weather Map New forecast layout! Learn more

10-Day Weather Forecast

Advertisements
Track Severe Weather on mobile